createdAt,value
2023-03-21T00:05:26.358Z,100865.00
2023-03-21T00:15:30.593Z,100858.00
2023-03-21T00:25:29.230Z,100848.00
2023-03-21T00:35:58.031Z,100840.00
2023-03-21T00:45:32.003Z,100830.00
2023-03-21T00:55:32.410Z,100822.00
2023-03-21T01:05:50.619Z,100813.00
2023-03-21T01:15:50.470Z,100805.00
2023-03-21T01:25:50.505Z,100801.00
2023-03-21T01:35:57.589Z,100790.00
2023-03-21T01:45:54.890Z,100788.00
2023-03-21T01:56:05.672Z,100782.00
2023-03-21T02:06:08.016Z,100771.00
2023-03-21T02:16:10.821Z,100765.00
2023-03-21T02:26:11.931Z,100757.00
2023-03-21T02:36:14.402Z,100747.00
2023-03-21T02:46:15.209Z,100735.00
2023-03-21T02:56:17.285Z,100726.00
2023-03-21T03:06:18.236Z,100720.00
2023-03-21T03:16:19.591Z,100716.00
2023-03-21T03:26:19.631Z,100712.00
2023-03-21T03:36:31.664Z,100696.00
2023-03-21T03:46:21.766Z,100690.00
2023-03-21T03:56:22.308Z,100683.00
2023-03-21T04:06:23.409Z,100679.00
2023-03-21T04:16:24.003Z,100673.00
2023-03-21T04:26:26.446Z,100669.00
2023-03-21T04:36:30.623Z,100663.00
2023-03-21T04:46:30.686Z,100657.00
2023-03-21T04:56:32.046Z,100657.00
2023-03-21T05:06:32.689Z,100655.00
2023-03-21T05:16:35.230Z,100651.00
2023-03-21T05:26:37.643Z,100645.00
2023-03-21T05:36:40.255Z,100643.00
2023-03-21T05:46:40.963Z,100645.00
2023-03-21T05:56:43.449Z,100647.00
2023-03-21T06:06:43.912Z,100651.00
2023-03-21T06:16:44.009Z,100655.00
2023-03-21T06:26:44.054Z,100653.00
2023-03-21T06:36:45.079Z,100653.00
2023-03-21T06:46:46.431Z,100655.00
2023-03-21T06:56:48.830Z,100661.00
2023-03-21T07:06:49.044Z,100667.00
2023-03-21T07:16:49.077Z,100675.00
2023-03-21T07:26:48.881Z,100686.00
2023-03-21T07:36:48.974Z,100690.00
2023-03-21T07:46:49.928Z,100692.00
2023-03-21T07:56:49.961Z,100686.00
2023-03-21T08:06:49.832Z,100679.00
2023-03-21T08:16:49.975Z,100683.00
2023-03-21T08:26:50.192Z,100681.00
2023-03-21T08:36:49.921Z,100679.00
2023-03-21T08:46:50.052Z,100684.00
2023-03-21T08:56:49.889Z,100683.00
2023-03-21T09:06:49.918Z,100679.00
2023-03-21T09:16:50.486Z,100673.00
2023-03-21T09:26:51.274Z,100669.00
2023-03-21T09:36:51.755Z,100665.00
2023-03-21T09:46:52.091Z,100665.00
2023-03-21T09:56:52.100Z,100665.00
2023-03-21T10:06:52.675Z,100661.00
2023-03-21T10:16:53.673Z,100657.00
2023-03-21T10:26:54.471Z,100647.00
2023-03-21T10:36:55.158Z,100637.00
2023-03-21T10:46:55.806Z,100622.00
2023-03-21T10:56:56.682Z,100606.00
2023-03-21T11:06:57.112Z,100589.00
2023-03-21T11:16:57.204Z,100569.00
2023-03-21T11:26:57.173Z,100559.00
2023-03-21T11:36:57.141Z,100553.00
2023-03-21T11:46:57.266Z,100549.00
2023-03-21T11:56:57.174Z,100549.00
2023-03-21T12:06:57.237Z,100531.00
2023-03-21T12:16:57.565Z,100521.00
2023-03-21T12:26:59.250Z,100515.00
2023-03-21T12:36:59.444Z,100509.00
2023-03-21T12:46:59.336Z,100517.00
2023-03-21T12:57:00.334Z,100505.00
2023-03-21T13:07:00.354Z,100494.00
2023-03-21T13:17:01.367Z,100480.00
2023-03-21T13:27:02.128Z,100466.00
2023-03-21T13:37:02.280Z,100447.00
2023-03-21T13:47:05.364Z,100431.00
2023-03-21T13:57:05.592Z,100413.00
2023-03-21T14:07:05.406Z,100410.00
2023-03-21T14:17:11.370Z,100400.00
2023-03-21T14:27:14.407Z,100392.00
2023-03-21T14:37:14.347Z,100382.00
2023-03-21T14:47:14.408Z,100384.00
2023-03-21T14:57:17.500Z,100376.00
2023-03-21T15:07:17.367Z,100368.00
2023-03-21T15:17:17.457Z,100355.00
2023-03-21T15:27:18.413Z,100341.00
2023-03-21T15:37:18.624Z,100335.00
2023-03-21T15:47:18.525Z,100323.00
2023-03-21T15:57:19.498Z,100323.00
2023-03-21T16:07:19.597Z,100325.00
2023-03-21T16:17:19.549Z,100323.00
2023-03-21T16:27:19.882Z,100321.00
2023-03-21T16:37:21.150Z,100309.00
2023-03-21T16:47:22.980Z,100302.00
2023-03-21T16:57:25.477Z,100298.00
2023-03-21T17:07:25.711Z,100311.00
2023-03-21T17:17:25.603Z,100323.00
2023-03-21T17:27:26.735Z,100331.00
2023-03-21T17:37:26.698Z,100339.00
2023-03-21T17:47:28.577Z,100337.00
2023-03-21T17:57:47.961Z,100333.00
2023-03-21T18:17:50.666Z,100327.00
2023-03-21T18:28:10.071Z,100329.00
2023-03-21T18:37:52.713Z,100323.00
2023-03-21T18:47:52.846Z,100335.00
2023-03-21T18:57:53.396Z,100339.00
2023-03-21T19:07:53.935Z,100345.00
2023-03-21T19:27:55.783Z,100337.00
2023-03-21T19:37:55.818Z,100335.00
2023-03-21T19:47:55.894Z,100325.00
2023-03-21T19:57:56.052Z,100319.00
2023-03-21T20:07:57.175Z,100321.00
2023-03-21T20:17:58.241Z,100329.00
2023-03-21T20:28:14.785Z,100325.00
2023-03-21T20:38:00.785Z,100319.00
2023-03-21T20:48:01.023Z,100317.00
2023-03-21T20:58:02.250Z,100313.00
2023-03-21T21:08:03.669Z,100309.00
2023-03-21T21:18:06.892Z,100308.00
2023-03-21T21:28:08.980Z,100306.00
2023-03-21T21:38:08.878Z,100306.00
2023-03-21T21:48:09.001Z,100306.00
2023-03-21T21:58:09.743Z,100300.00
2023-03-21T22:08:10.688Z,100300.00
2023-03-21T22:18:11.106Z,100298.00
2023-03-21T22:28:11.044Z,100292.00
2023-03-21T22:38:11.948Z,100288.00
2023-03-21T22:48:12.103Z,100290.00
2023-03-21T22:58:11.991Z,100290.00
2023-03-21T23:08:12.027Z,100286.00
2023-03-21T23:18:12.079Z,100276.00
2023-03-21T23:28:12.185Z,100270.00
2023-03-21T23:38:12.105Z,100268.00
2023-03-21T23:48:12.322Z,100262.00
2023-03-21T23:58:12.069Z,100260.00
